Joroinen, Suomi

24. tammikuuta 2019 klo 14:05 (EET) (GMT +0200)
Juva | | Change Station

Kork 410 ft 61.89 °N, 27.88 °E | Updated 33 seconds ago

Puolipilvistä
Puolipilvistä
-0.9 °F
Tuntuu kuin -1 °F
N
0
Tuuli Suunnaltaan vaihteleva Tuuli ilmansuunnasta Pohjoinen
Gusts 0.0 mph

Tänään
Korkea -- | Matala -- °F
--% Sateen mahd.
Eilen
Korkea -- | Matala -- °F
Precip. -- tuumaa
Ilmanpaine 30.12 tuumaa
Näkyvyys -9999.0 mailia
Pilviä
Tuulen hyytävyys -1 °F
Kastepiste -4 °F
Ilmankosteus 85%
Sademäärä 0.00 tuumaa
Lumensyvyys Ei saatavilla
8:56 AM 3:45 PM
Vähenevä kupera kuu, 85% visible
METAR EFMI 241150Z AUTO 26002KT CAVOK M18/M20 Q1020
Ilmanpaine 30.12 tuumaa
Näkyvyys -9999.0 mailia
Pilviä
Tuulen hyytävyys -1 °F
Kastepiste -4 °F
Ilmankosteus 85%
Sademäärä 0.00 tuumaa
Lumensyvyys Ei saatavilla
8:56 AM 3:45 PM
Vähenevä kupera kuu, 85% visible
METAR EFMI 241150Z AUTO 26002KT CAVOK M18/M20 Q1020

Get Severe Weather Alerts

Thanks for signing up!

Be on the lookout for a verification email in your inbox.

You'll start receiving the daily forecast at 6 AM.

×

10-Day Weather Forecast

×

Almanac

Tähtitiede

Jan. 24, 2019 Nousuaika Laskuaika
Valoisa aika
Porvarillinen hämärä
Nauttinen hämärä
Astronominen hämärä
Kuu
Näkyvän valon pituus
Päivän pituus
Tomorrow will be .
, % of the Moon is Illuminated

Tämän päivän ennätykset

Country Highs Country Lows

Community

WunderPhotos

Category 6

Welcome to Category 6. This is the collective home for Weather Underground's featured writeups by Dr. Jeff Masters (right), Bob Henson (left), Chris Burt, and other regular contributors.

Nearby

Ilmanlaatu

  Ilmanlaatu AQ Index Pollutant
Not available.

Lumensyvyys

Station Depth Korkeus

Maanjäristysaktiivisuus

Paikkakunta Distance Mag. Time & Date
Minimum magnitude displayed is 2.5.

Coastal Water Temperatures

Paikka Lämpötila

Stations

Lähimmät sääasemat

Aseman sijainti Lämpötila Tuulen hyytävyys Kastepiste Ilmankosteus Tuuli Precip. Kork Päivitetty Tyyppi